Terminal Aerodrome Forecast
Issued by NWS

Home | Current Version | Previous Version | Text Only | Print | Product List | Glossary On
Versions: 1 2 3 4 5 6 7 8 9 10 11 12 13 14
706
FTUS43 KOAX 081122
TAFBFF
TAF
KBFF 081122Z 0812/0912 31011KT P6SM BKN250
     FM081700 31015G23KT P6SM SCT100
     FM090000 31011KT P6SM BKN200=

USA.gov is the U.S. government's official web portal to all federal, state and local government web resources and services.